createdAt,value
2018-05-08T00:02:17.483Z,7.57
2018-05-08T00:04:45.514Z,7.97
2018-05-08T00:07:13.630Z,7.60
2018-05-08T00:09:41.702Z,7.17
2018-05-08T00:12:09.161Z,7.67
2018-05-08T00:14:36.201Z,7.73
2018-05-08T00:17:03.250Z,7.87
2018-05-08T00:19:30.503Z,7.43
2018-05-08T00:21:57.656Z,7.63
2018-05-08T00:24:24.705Z,7.20
2018-05-08T00:26:51.758Z,7.13
2018-05-08T00:29:18.800Z,7.63
2018-05-08T00:31:45.952Z,7.73
2018-05-08T00:34:13.000Z,7.20
2018-05-08T00:36:40.018Z,7.37
2018-05-08T00:39:07.098Z,7.47
2018-05-08T00:44:16.730Z,7.90
2018-05-08T00:46:43.807Z,7.17
2018-05-08T00:49:10.817Z,7.33
2018-05-08T00:51:37.804Z,7.13
2018-05-08T00:54:04.819Z,6.83
2018-05-08T00:56:31.902Z,7.73
2018-05-08T00:58:58.949Z,7.03
2018-05-08T01:01:26.007Z,6.90
2018-05-08T01:03:53.047Z,6.60
2018-05-08T01:06:20.094Z,7.20
2018-05-08T01:11:44.911Z,6.87
2018-05-08T01:14:11.960Z,6.70
2018-05-08T01:16:39.016Z,6.90
2018-05-08T01:19:06.059Z,7.23
2018-05-08T01:21:33.106Z,7.93
2018-05-08T01:24:00.162Z,7.03
2018-05-08T01:26:27.207Z,7.60
2018-05-08T01:28:54.253Z,6.97
2018-05-08T01:31:21.308Z,7.03
2018-05-08T01:33:48.351Z,7.80
2018-05-08T01:36:16.627Z,6.90
2018-05-08T01:38:43.681Z,7.30
2018-05-08T01:41:11.647Z,7.43
2018-05-08T01:43:38.694Z,6.90
2018-05-08T01:46:05.750Z,7.43
2018-05-08T01:48:32.996Z,7.23
2018-05-08T01:51:00.050Z,7.30
2018-05-08T01:53:27.098Z,7.67
2018-05-08T01:55:54.217Z,7.83
2018-05-08T01:58:21.262Z,7.70
2018-05-08T02:00:48.349Z,7.53
2018-05-08T02:03:16.009Z,8.50
2018-05-08T02:05:43.465Z,7.73
2018-05-08T02:08:10.511Z,8.73
2018-05-08T02:10:38.585Z,8.63
2018-05-08T02:13:05.597Z,9.23
2018-05-08T02:15:33.100Z,8.60
2018-05-08T02:18:00.141Z,9.23
2018-05-08T02:20:27.229Z,9.37
2018-05-08T02:22:54.244Z,9.20
2018-05-08T02:25:21.313Z,9.47
2018-05-08T02:27:48.333Z,9.57
2018-05-08T02:30:15.794Z,9.70
2018-05-08T02:32:42.847Z,9.00
2018-05-08T02:35:09.889Z,9.20
2018-05-08T02:37:36.939Z,8.90
2018-05-08T02:40:04.501Z,9.60
2018-05-08T02:42:31.856Z,9.33
2018-05-08T02:44:58.918Z,9.33
2018-05-08T02:47:26.061Z,9.80
2018-05-08T02:49:53.111Z,9.33
2018-05-08T02:52:20.157Z,9.50
2018-05-08T02:54:47.208Z,8.63
2018-05-08T02:57:14.252Z,9.17
2018-05-08T02:59:41.303Z,9.77
2018-05-08T03:02:09.278Z,9.87
2018-05-08T03:04:36.321Z,9.77
2018-05-08T03:07:03.369Z,9.23
2018-05-08T03:09:30.519Z,9.73
2018-05-08T03:11:58.284Z,10.83
2018-05-08T03:14:25.336Z,9.50
2018-05-08T03:16:53.199Z,10.30
2018-05-08T03:19:20.251Z,10.03
2018-05-08T03:21:48.938Z,9.90
2018-05-08T03:24:16.090Z,10.03
2018-05-08T03:26:43.132Z,9.87
2018-05-08T03:29:11.314Z,9.87
2018-05-08T03:31:38.356Z,10.00
2018-05-08T03:34:05.404Z,9.87
2018-05-08T03:36:33.074Z,9.70
2018-05-08T03:39:00.733Z,9.53
2018-05-08T03:41:27.779Z,10.43
2018-05-08T03:43:54.837Z,10.53
2018-05-08T03:46:22.291Z,10.27
2018-05-08T03:48:49.335Z,10.00
2018-05-08T03:51:16.384Z,10.60
2018-05-08T03:53:44.973Z,10.90
2018-05-08T03:56:12.017Z,10.40
2018-05-08T03:58:39.066Z,10.97
2018-05-08T04:01:12.264Z,10.80
2018-05-08T04:03:45.349Z,11.47
2018-05-08T04:06:15.146Z,10.47
2018-05-08T04:08:42.211Z,11.13
2018-05-08T04:11:09.262Z,11.50
2018-05-08T04:13:37.638Z,10.60
2018-05-08T04:16:05.308Z,10.23
2018-05-08T04:18:32.351Z,11.07
2018-05-08T04:20:59.482Z,10.83
2018-05-08T04:23:26.453Z,10.47
2018-05-08T04:25:53.604Z,11.23
2018-05-08T04:28:20.648Z,11.23
2018-05-08T04:30:47.696Z,11.33
2018-05-08T04:33:14.751Z,11.67
2018-05-08T04:35:41.795Z,11.33
2018-05-08T04:38:08.841Z,10.57
2018-05-08T04:40:35.898Z,11.30
2018-05-08T04:43:02.939Z,11.03
2018-05-08T04:45:29.987Z,10.37
2018-05-08T04:47:57.041Z,11.50
2018-05-08T04:50:24.084Z,10.57
2018-05-08T04:52:52.465Z,11.23
2018-05-08T04:55:19.521Z,11.40
2018-05-08T04:57:46.567Z,11.37
2018-05-08T05:00:14.430Z,11.57
2018-05-08T05:02:41.493Z,11.10
2018-05-08T05:05:08.527Z,11.13
2018-05-08T05:07:36.400Z,11.10
2018-05-08T05:10:03.443Z,12.10
2018-05-08T05:12:30.492Z,11.17
2018-05-08T05:14:57.546Z,11.57
2018-05-08T05:17:24.590Z,11.40
2018-05-08T05:19:53.010Z,11.97
2018-05-08T05:22:20.017Z,12.30
2018-05-08T05:24:47.072Z,12.03
2018-05-08T05:27:14.844Z,12.13
2018-05-08T05:29:41.881Z,11.70
2018-05-08T05:32:08.932Z,10.60
2018-05-08T05:34:36.904Z,11.07
2018-05-08T05:37:04.056Z,10.17
2018-05-08T05:39:31.099Z,11.33
2018-05-08T05:41:58.118Z,11.63
2018-05-08T05:44:25.207Z,11.33
2018-05-08T05:46:52.248Z,10.73
2018-05-08T05:49:19.295Z,10.60
2018-05-08T05:51:49.624Z,10.77
2018-05-08T05:54:16.673Z,10.40
2018-05-08T05:56:43.725Z,9.73
2018-05-08T05:59:10.765Z,9.37
2018-05-08T06:01:37.813Z,9.27
2018-05-08T06:04:04.873Z,9.17
2018-05-08T06:06:31.972Z,8.93
2018-05-08T06:08:59.573Z,8.33
2018-05-08T06:11:26.934Z,8.20
2018-05-08T06:13:53.977Z,8.37
2018-05-08T06:16:21.035Z,7.70
2018-05-08T06:18:49.201Z,7.77
2018-05-08T06:21:16.355Z,7.07
2018-05-08T06:23:43.400Z,7.80
2018-05-08T06:26:10.455Z,7.50
2018-05-08T06:28:37.553Z,7.83
2018-05-08T06:31:05.468Z,7.70
2018-05-08T06:33:32.622Z,7.20
2018-05-08T06:35:59.672Z,7.33
2018-05-08T06:38:26.822Z,6.97
2018-05-08T06:40:53.868Z,6.10
2018-05-08T06:43:21.126Z,6.07
2018-05-08T06:45:48.277Z,6.20
2018-05-08T06:48:15.321Z,6.00
2018-05-08T06:50:42.369Z,6.03
2018-05-08T06:53:09.732Z,5.47
2018-05-08T06:55:36.777Z,6.10
2018-05-08T06:58:03.923Z,5.73
2018-05-08T07:00:31.861Z,5.53
2018-05-08T07:02:58.948Z,5.70
2018-05-08T07:05:25.964Z,5.83
2018-05-08T07:07:53.041Z,5.77
2018-05-08T07:10:20.095Z,5.40
2018-05-08T07:12:47.445Z,5.30
2018-05-08T07:15:15.825Z,5.70
2018-05-08T07:17:42.872Z,5.60
2018-05-08T07:20:09.928Z,4.53
2018-05-08T07:22:37.079Z,4.50
2018-05-08T07:25:04.122Z,5.10
2018-05-08T07:27:32.706Z,4.90
2018-05-08T07:29:59.769Z,5.43
2018-05-08T07:32:26.810Z,4.57
2018-05-08T07:34:54.261Z,5.35
2018-05-08T07:37:22.334Z,5.75
2018-05-08T07:39:49.485Z,5.45
2018-05-08T07:42:16.534Z,5.82
2018-05-08T07:47:41.458Z,5.40
2018-05-08T07:50:09.321Z,5.25
2018-05-08T07:52:36.375Z,4.95
2018-05-08T07:55:04.237Z,5.10
2018-05-08T07:57:31.830Z,6.20
2018-05-08T07:59:59.155Z,5.95
2018-05-08T08:02:26.208Z,5.43
2018-05-08T08:04:53.255Z,5.50
2018-05-08T08:07:20.300Z,5.53
2018-05-08T08:09:47.354Z,5.40
2018-05-08T08:12:14.472Z,6.15
2018-05-08T08:14:41.549Z,5.72
2018-05-08T08:17:08.595Z,5.95
2018-05-08T08:19:35.650Z,6.70
2018-05-08T08:22:02.693Z,6.18
2018-05-08T08:24:29.844Z,6.20
2018-05-08T08:26:56.893Z,6.03
2018-05-08T08:29:23.945Z,6.43
2018-05-08T08:31:52.117Z,6.00
2018-05-08T08:34:19.171Z,6.87
2018-05-08T08:36:48.370Z,6.53
2018-05-08T08:39:15.416Z,5.85
2018-05-08T08:41:42.572Z,5.90
2018-05-08T08:44:09.617Z,5.85
2018-05-08T08:46:36.814Z,9.02
2018-05-08T08:49:03.920Z,5.45
2018-05-08T08:51:30.968Z,4.95
2018-05-08T08:53:59.146Z,4.62
2018-05-08T08:56:26.188Z,4.50
2018-05-08T08:58:53.237Z,4.40
2018-05-08T09:01:20.291Z,4.40
2018-05-08T09:03:47.333Z,4.30
2018-05-08T09:06:14.383Z,5.37
2018-05-08T09:08:42.356Z,4.25
2018-05-08T09:11:09.859Z,4.57
2018-05-08T09:13:36.967Z,5.00
2018-05-08T09:16:04.010Z,4.80
2018-05-08T09:18:31.059Z,5.30
2018-05-08T09:20:58.113Z,5.30
2018-05-08T09:23:26.052Z,5.40
2018-05-08T09:25:53.126Z,5.20
2018-05-08T09:28:20.180Z,4.72
2018-05-08T09:30:47.223Z,4.55
2018-05-08T09:33:15.096Z,4.87
2018-05-08T09:35:42.246Z,4.78
2018-05-08T09:38:09.399Z,4.30
2018-05-08T09:40:36.441Z,5.07
2018-05-08T09:43:04.007Z,4.82
2018-05-08T09:45:31.051Z,4.30
2018-05-08T09:47:58.509Z,4.53
2018-05-08T09:50:25.558Z,4.07
2018-05-08T09:52:52.612Z,4.37
2018-05-08T09:55:19.656Z,4.25
2018-05-08T09:57:46.706Z,4.40
2018-05-08T10:00:13.758Z,4.37
2018-05-08T10:02:40.800Z,4.45
2018-05-08T10:05:08.060Z,4.12
2018-05-08T10:07:35.102Z,4.15
2018-05-08T10:10:02.258Z,4.10
2018-05-08T10:12:29.302Z,4.20
2018-05-08T10:14:56.356Z,4.30
2018-05-08T10:17:23.397Z,4.12
2018-05-08T10:19:50.471Z,3.87
2018-05-08T10:22:17.503Z,5.05
2018-05-08T10:24:44.550Z,4.87
2018-05-08T10:27:11.594Z,4.37
2018-05-08T10:29:38.648Z,3.97
2018-05-08T10:32:06.613Z,4.30
2018-05-08T10:34:33.969Z,4.82
2018-05-08T10:37:01.223Z,4.90
2018-05-08T10:39:28.270Z,4.65
2018-05-08T10:41:55.638Z,4.30
2018-05-08T10:44:22.674Z,4.45
2018-05-08T10:46:49.724Z,4.85
2018-05-08T10:49:17.181Z,4.62
2018-05-08T10:51:49.391Z,4.30
2018-05-08T10:54:17.593Z,4.00
2018-05-08T10:56:45.156Z,4.22
2018-05-08T10:59:17.121Z,4.30
2018-05-08T11:01:44.349Z,4.10
2018-05-08T11:04:11.312Z,4.35
2018-05-08T11:06:38.297Z,3.90
2018-05-08T11:09:05.350Z,4.18
2018-05-08T11:11:32.395Z,3.90
2018-05-08T11:13:59.442Z,4.22
2018-05-08T11:16:26.496Z,3.75
2018-05-08T11:18:53.539Z,4.18
2018-05-08T11:21:20.588Z,4.32
2018-05-08T11:23:47.641Z,3.85
2018-05-08T11:26:14.685Z,4.00
2018-05-08T11:28:41.740Z,4.00
2018-05-08T11:31:08.789Z,4.00
2018-05-08T11:33:35.835Z,3.75
2018-05-08T11:36:03.908Z,3.33
2018-05-08T11:38:31.060Z,3.78
2018-05-08T11:40:58.105Z,3.85
2018-05-08T11:43:25.159Z,3.20
2018-05-08T11:45:52.207Z,3.58
2018-05-08T11:48:19.249Z,3.72
2018-05-08T11:50:46.305Z,3.20
2018-05-08T11:53:13.346Z,3.20
2018-05-08T11:55:40.399Z,3.22
2018-05-08T11:58:07.854Z,3.35
2018-05-08T12:00:34.906Z,3.20
2018-05-08T12:03:01.950Z,2.92
2018-05-08T12:05:30.297Z,3.08
2018-05-08T12:07:57.379Z,3.30
2018-05-08T12:10:24.432Z,2.87
2018-05-08T12:12:51.845Z,3.15
2018-05-08T12:15:18.933Z,3.75
2018-05-08T12:17:45.944Z,3.85
2018-05-08T12:20:13.237Z,3.28
2018-05-08T12:22:40.285Z,3.47
2018-05-08T12:25:07.338Z,3.65
2018-05-08T12:27:34.796Z,3.17
2018-05-08T12:30:01.840Z,3.20
2018-05-08T12:32:28.889Z,3.12
2018-05-08T12:34:56.040Z,3.37
2018-05-08T12:37:23.093Z,3.28
2018-05-08T12:39:50.137Z,3.05
2018-05-08T12:42:18.722Z,3.00
2018-05-08T12:44:46.862Z,3.42
2018-05-08T12:47:13.944Z,2.92
2018-05-08T12:49:40.997Z,3.45
2018-05-08T12:52:14.014Z,3.42
2018-05-08T12:54:41.138Z,3.17
2018-05-08T12:57:08.185Z,3.10
2018-05-08T12:59:35.228Z,3.42
2018-05-08T13:02:02.282Z,3.58
2018-05-08T13:04:29.914Z,3.50
2018-05-08T13:06:56.989Z,3.92
2018-05-08T13:09:24.045Z,3.37
2018-05-08T13:11:51.194Z,3.50
2018-05-08T13:14:18.238Z,3.30
2018-05-08T13:16:45.284Z,3.33
2018-05-08T13:19:12.348Z,3.12
2018-05-08T13:21:39.755Z,3.40
2018-05-08T13:24:07.049Z,3.45
2018-05-08T13:26:34.196Z,3.62
2018-05-08T13:29:01.251Z,3.20
2018-05-08T13:31:28.294Z,3.47
2018-05-08T13:33:55.343Z,3.50
2018-05-08T13:36:23.723Z,3.20
2018-05-08T13:38:50.776Z,3.35
2018-05-08T13:41:17.819Z,3.28
2018-05-08T13:43:44.868Z,3.15
2018-05-08T13:46:11.925Z,3.50
2018-05-08T13:48:38.965Z,3.30
2018-05-08T13:51:06.086Z,3.55
2018-05-08T13:53:33.783Z,3.85
2018-05-08T13:56:00.834Z,3.60
2018-05-08T13:58:29.004Z,3.10
2018-05-08T14:00:56.062Z,3.40
2018-05-08T14:03:23.207Z,3.40
2018-05-08T14:05:50.253Z,3.85
2018-05-08T14:08:18.166Z,3.40
2018-05-08T14:10:45.171Z,3.58
2018-05-08T14:13:12.234Z,3.62
2018-05-08T14:15:39.271Z,3.80
2018-05-08T14:18:06.283Z,3.50
2018-05-08T14:20:34.386Z,3.62
2018-05-08T14:23:01.435Z,3.72
2018-05-08T14:25:28.488Z,4.00
2018-05-08T14:27:55.503Z,3.87
2018-05-08T14:30:22.584Z,3.83
2018-05-08T14:32:49.634Z,4.15
2018-05-08T14:35:16.678Z,4.07
2018-05-08T14:37:44.343Z,4.10
2018-05-08T14:40:12.715Z,3.85
2018-05-08T14:42:41.824Z,3.80
2018-05-08T14:45:11.284Z,4.37
2018-05-08T14:47:39.788Z,3.90
2018-05-08T14:50:08.216Z,4.37
2018-05-08T14:52:36.782Z,4.32
2018-05-08T14:55:05.097Z,3.58
2018-05-08T14:57:33.715Z,3.97
2018-05-08T15:00:02.657Z,4.43
2018-05-08T15:02:31.559Z,4.70
2018-05-08T15:04:59.927Z,4.37
2018-05-08T15:07:28.463Z,4.62
2018-05-08T15:09:57.199Z,4.87
2018-05-08T15:12:26.099Z,5.20
2018-05-08T15:14:55.335Z,4.75
2018-05-08T15:17:24.075Z,4.72
2018-05-08T15:19:52.377Z,4.70
2018-05-08T15:22:21.097Z,4.68
2018-05-08T15:24:50.403Z,4.80
2018-05-08T15:27:19.012Z,4.80
2018-05-08T15:29:47.553Z,5.30
2018-05-08T15:32:16.483Z,5.62
2018-05-08T15:34:46.186Z,4.57
2018-05-08T15:37:14.853Z,6.30
2018-05-08T15:39:43.580Z,6.32
2018-05-08T15:42:12.486Z,5.75
2018-05-08T15:44:40.859Z,6.03
2018-05-08T15:47:09.138Z,7.97
2018-05-08T15:49:38.484Z,7.80
2018-05-08T15:52:06.900Z,7.10
2018-05-08T15:54:35.480Z,7.30
2018-05-08T15:57:04.055Z,7.50
2018-05-08T15:59:32.515Z,7.35
2018-05-08T16:02:01.456Z,6.57
2018-05-08T16:04:30.814Z,7.70
2018-05-08T16:07:01.798Z,7.03
2018-05-08T16:09:34.881Z,7.18
2018-05-08T16:12:04.164Z,6.35
2018-05-08T16:14:32.837Z,7.00
2018-05-08T16:17:02.130Z,6.10
2018-05-08T16:19:30.562Z,4.80
2018-05-08T16:21:59.506Z,4.43
2018-05-08T16:24:26.585Z,3.80
2018-05-08T16:26:53.634Z,3.97
2018-05-08T16:29:20.892Z,3.30
2018-05-08T16:31:47.937Z,2.75
2018-05-08T16:34:14.991Z,3.00
2018-05-08T16:36:42.032Z,2.80
2018-05-08T16:39:09.083Z,3.20
2018-05-08T16:41:36.232Z,3.25
2018-05-08T16:44:03.286Z,3.20
2018-05-08T16:46:30.337Z,3.15
2018-05-08T16:48:58.205Z,3.00
2018-05-08T16:51:25.542Z,3.28
2018-05-08T16:53:54.436Z,3.20
2018-05-08T16:56:25.488Z,3.33
2018-05-08T16:58:52.702Z,3.20
2018-05-08T17:01:19.691Z,3.22
2018-05-08T17:03:46.839Z,3.30
2018-05-08T17:06:13.888Z,3.28
2018-05-08T17:08:40.942Z,3.58
2018-05-08T17:11:07.985Z,3.30
2018-05-08T17:13:35.034Z,3.40
2018-05-08T17:16:02.495Z,3.20
2018-05-08T17:18:29.544Z,3.50
2018-05-08T17:20:56.589Z,3.50
2018-05-08T17:23:23.745Z,3.28
2018-05-08T17:25:50.798Z,3.40
2018-05-08T17:28:19.580Z,3.33
2018-05-08T17:30:46.841Z,3.47
2018-05-08T17:33:13.953Z,3.97
2018-05-08T17:35:41.034Z,4.00
2018-05-08T17:38:08.291Z,3.85
2018-05-08T17:40:35.845Z,3.83
2018-05-08T17:43:02.901Z,3.65
2018-05-08T17:45:29.946Z,3.80
2018-05-08T17:47:57.816Z,3.70
2018-05-08T17:50:24.860Z,3.85
2018-05-08T17:52:52.933Z,3.83
2018-05-08T17:55:21.070Z,3.70
2018-05-08T17:57:48.164Z,5.15
2018-05-08T18:00:15.203Z,4.40
2018-05-08T18:02:42.767Z,4.07
2018-05-08T18:05:09.915Z,3.72
2018-05-08T18:07:36.962Z,3.90
2018-05-08T18:10:05.138Z,3.28
2018-05-08T18:12:32.186Z,3.97
2018-05-08T18:14:59.240Z,4.43
2018-05-08T18:17:26.359Z,4.47
2018-05-08T18:19:53.435Z,3.90
2018-05-08T18:22:20.503Z,3.80
2018-05-08T18:24:48.557Z,4.00
2018-05-08T18:27:15.611Z,3.70
2018-05-08T18:29:43.575Z,3.90
2018-05-08T18:32:10.840Z,3.72
2018-05-08T18:34:38.490Z,3.50
2018-05-08T18:37:05.848Z,3.90
2018-05-08T18:39:33.920Z,3.83
2018-05-08T18:42:00.973Z,3.55
2018-05-08T18:44:29.046Z,3.40
2018-05-08T18:46:56.089Z,3.85
2018-05-08T18:49:23.232Z,3.53
2018-05-08T18:51:51.007Z,3.45
2018-05-08T18:54:18.056Z,3.90
2018-05-08T18:56:45.109Z,3.80
2018-05-08T18:59:12.151Z,4.07
2018-05-08T19:01:39.200Z,3.90
2018-05-08T19:04:06.261Z,4.68
2018-05-08T19:06:33.298Z,4.43
2018-05-08T19:09:00.346Z,4.90
2018-05-08T19:11:33.130Z,4.85
2018-05-08T19:14:00.178Z,6.55
2018-05-08T19:16:29.274Z,6.32
2018-05-08T19:19:03.665Z,6.22
2018-05-08T19:21:30.750Z,6.65
2018-05-08T19:24:03.835Z,7.15
2018-05-08T19:26:30.906Z,6.97
2018-05-08T19:29:04.895Z,7.55
2018-05-08T19:31:31.950Z,7.43
2018-05-08T19:34:00.221Z,6.90
2018-05-08T19:36:33.107Z,7.53
2018-05-08T19:39:00.943Z,7.97
2018-05-08T19:41:28.057Z,8.38
2018-05-08T19:43:55.173Z,7.57
2018-05-08T19:46:24.475Z,8.20
2018-05-08T19:48:51.529Z,7.90
2018-05-08T19:51:18.685Z,7.80
2018-05-08T19:53:45.831Z,8.52
2018-05-08T19:56:12.875Z,8.10
2018-05-08T19:58:40.552Z,7.78
2018-05-08T20:01:08.477Z,8.25
2018-05-08T20:03:35.556Z,7.80
2018-05-08T20:06:02.606Z,8.05
2018-05-08T20:08:29.659Z,7.72
2018-05-08T20:10:56.701Z,8.18
2018-05-08T20:13:24.673Z,8.48
2018-05-08T20:15:51.825Z,7.40
2018-05-08T20:18:19.081Z,6.97
2018-05-08T20:20:46.218Z,7.22
2018-05-08T20:23:13.282Z,6.20
2018-05-08T20:25:40.332Z,5.93
2018-05-08T20:28:07.377Z,5.18
2018-05-08T20:30:34.642Z,4.90
2018-05-08T20:33:01.676Z,4.80
2018-05-08T20:35:30.838Z,4.68
2018-05-08T20:37:59.257Z,4.47
2018-05-08T20:40:26.474Z,4.53
2018-05-08T20:42:53.659Z,4.30
2018-05-08T20:45:20.811Z,4.53
2018-05-08T20:47:47.861Z,4.22
2018-05-08T20:50:14.913Z,4.20
2018-05-08T20:52:41.960Z,3.80
2018-05-08T20:55:09.619Z,4.18
2018-05-08T20:57:37.795Z,2.92
2018-05-08T21:00:04.842Z,2.62
2018-05-08T21:02:31.900Z,2.80
2018-05-08T21:04:59.662Z,2.87
2018-05-08T21:07:26.813Z,2.70
2018-05-08T21:09:53.858Z,2.90
2018-05-08T21:12:21.314Z,2.87
2018-05-08T21:14:49.285Z,3.12
2018-05-08T21:17:16.540Z,2.80
2018-05-08T21:19:43.689Z,3.10
2018-05-08T21:22:11.045Z,3.03
2018-05-08T21:24:38.100Z,3.10
2018-05-08T21:27:05.144Z,2.70
2018-05-08T21:29:37.825Z,2.70
2018-05-08T21:32:06.817Z,2.35
2018-05-08T21:34:33.871Z,2.30
2018-05-08T21:37:00.919Z,2.22
2018-05-08T21:39:28.071Z,2.13
2018-05-08T21:41:55.128Z,1.93
2018-05-08T21:44:22.168Z,2.27
2018-05-08T21:46:49.830Z,2.00
2018-05-08T21:49:17.289Z,2.20
2018-05-08T21:51:44.334Z,2.00
2018-05-08T21:54:11.381Z,2.10
2018-05-08T21:56:39.147Z,2.20
2018-05-08T21:59:06.202Z,1.90
2018-05-08T22:01:33.217Z,2.30
2018-05-08T22:04:00.366Z,2.10
2018-05-08T22:06:27.444Z,1.80
2018-05-08T22:08:54.513Z,1.83
2018-05-08T22:11:21.541Z,1.80
2018-05-08T22:13:48.589Z,1.50
2018-05-08T22:16:16.522Z,1.70
2018-05-08T22:18:43.606Z,1.90
2018-05-08T22:21:10.662Z,1.92
2018-05-08T22:23:37.709Z,1.63
2018-05-08T22:26:04.752Z,1.63
2018-05-08T22:28:31.802Z,1.67
2018-05-08T22:30:58.858Z,1.30
2018-05-08T22:33:25.914Z,1.40
2018-05-08T22:35:52.952Z,1.40
2018-05-08T22:38:20.099Z,1.40
2018-05-08T22:40:47.156Z,1.50
2018-05-08T22:43:14.194Z,1.30
2018-05-08T22:45:41.244Z,1.20
2018-05-08T22:48:08.300Z,1.40
2018-05-08T22:50:35.341Z,1.30
2018-05-08T22:53:02.393Z,1.20
2018-05-08T22:55:30.159Z,1.47
2018-05-08T22:57:57.579Z,1.80
2018-05-08T23:00:24.675Z,1.40
2018-05-08T23:02:51.711Z,1.30
2018-05-08T23:05:19.278Z,1.40
2018-05-08T23:07:46.320Z,1.50
2018-05-08T23:10:13.369Z,2.20
2018-05-08T23:12:41.753Z,1.30
2018-05-08T23:15:08.765Z,1.37
2018-05-08T23:17:35.954Z,1.30
2018-05-08T23:20:03.921Z,1.73
2018-05-08T23:22:30.970Z,1.63
2018-05-08T23:24:59.561Z,1.30
2018-05-08T23:27:26.568Z,1.20
2018-05-08T23:29:53.648Z,1.40
2018-05-08T23:32:20.706Z,1.30
2018-05-08T23:34:47.746Z,1.50
2018-05-08T23:37:14.795Z,1.53
2018-05-08T23:39:41.849Z,1.40
2018-05-08T23:42:08.860Z,1.30
2018-05-08T23:44:35.944Z,1.50
2018-05-08T23:47:02.950Z,1.40
2018-05-08T23:49:30.038Z,1.30
2018-05-08T23:51:57.296Z,1.50
2018-05-08T23:54:25.264Z,1.20
2018-05-08T23:56:52.309Z,1.50
2018-05-08T23:59:19.363Z,1.40
